Terminal Aerodrome Forecast
Issued by NWS

Home | Current Version | Previous Version | Text Only | Print | Product List | Glossary Off
Versions: 1 2 3 4 5 6 7 8 9 10 11 12 13 14 15 16 17 18 19

000
FTUS43 KICT 011720
TAFHUT
TAF
KHUT 011720Z 0118/0218 34014G22KT P6SM OVC020
     FM011900 34013G22KT P6SM BKN035 OVC150
     FM020000 35009KT P6SM SCT035 BKN120
     FM020600 36007KT P6SM VCSH SCT015 OVC020
     FM021600 34009KT P6SM SCT040=

USA.gov is the U.S. government's official web portal to all federal, state and local government web resources and services.